sensor_id;sensor_type;location;lat;lon;timestamp;pressure;altitude;pressure_sealevel;temperature;humidity
61963;BME280;47927;42.646;23.096;2023-06-24T00:02:21;92237.38;;;20.89;61.90
61963;BME280;47927;42.646;23.096;2023-06-24T00:04:50;92238.00;;;20.81;62.60
61963;BME280;47927;42.646;23.096;2023-06-24T00:07:16;92218.91;;;20.73;62.82
61963;BME280;47927;42.646;23.096;2023-06-24T00:09:41;92233.56;;;20.90;62.47
61963;BME280;47927;42.646;23.096;2023-06-24T00:12:07;92239.91;;;20.80;62.84
61963;BME280;47927;42.646;23.096;2023-06-24T00:14:33;92236.53;;;20.80;62.96
61963;BME280;47927;42.646;23.096;2023-06-24T00:16:58;92238.84;;;20.78;63.21
61963;BME280;47927;42.646;23.096;2023-06-24T00:19:25;92244.88;;;20.78;63.50
61963;BME280;47927;42.646;23.096;2023-06-24T00:21:51;92240.56;;;20.97;62.85
61963;BME280;47927;42.646;23.096;2023-06-24T00:24:21;92244.59;;;21.14;62.38
61963;BME280;47927;42.646;23.096;2023-06-24T00:26:51;92246.09;;;21.28;61.72
61963;BME280;47927;42.646;23.096;2023-06-24T00:29:17;92222.78;;;21.10;61.68
61963;BME280;47927;42.646;23.096;2023-06-24T00:31:43;92244.69;;;21.11;62.16
61963;BME280;47927;42.646;23.096;2023-06-24T00:34:09;92245.09;;;20.97;62.49
61963;BME280;47927;42.646;23.096;2023-06-24T00:36:35;92239.19;;;21.05;62.66
61963;BME280;47927;42.646;23.096;2023-06-24T00:39:01;92250.22;;;21.16;62.18
61963;BME280;47927;42.646;23.096;2023-06-24T00:41:33;92246.19;;;21.12;62.28
61963;BME280;47927;42.646;23.096;2023-06-24T00:44:00;92247.25;;;21.02;62.51
61963;BME280;47927;42.646;23.096;2023-06-24T00:46:26;92252.75;;;20.94;62.55
61963;BME280;47927;42.646;23.096;2023-06-24T00:48:56;92251.91;;;20.98;62.37
61963;BME280;47927;42.646;23.096;2023-06-24T00:51:24;92250.50;;;20.93;62.61
61963;BME280;47927;42.646;23.096;2023-06-24T00:53:55;92246.72;;;20.94;62.87
61963;BME280;47927;42.646;23.096;2023-06-24T00:56:23;92245.31;;;21.02;62.63
61963;BME280;47927;42.646;23.096;2023-06-24T00:58:52;92234.63;;;21.06;62.12
61963;BME280;47927;42.646;23.096;2023-06-24T01:01:18;92232.94;;;20.86;62.70
61963;BME280;47927;42.646;23.096;2023-06-24T01:03:45;92237.16;;;20.84;63.06
61963;BME280;47927;42.646;23.096;2023-06-24T01:06:13;92229.44;;;20.89;62.68
61963;BME280;47927;42.646;23.096;2023-06-24T01:08:38;92217.44;;;20.85;62.48
61963;BME280;47927;42.646;23.096;2023-06-24T01:11:04;92225.19;;;20.79;62.43
61963;BME280;47927;42.646;23.096;2023-06-24T01:13:29;92232.25;;;20.69;62.85
61963;BME280;47927;42.646;23.096;2023-06-24T01:15:58;92232.09;;;20.47;63.55
61963;BME280;47927;42.646;23.096;2023-06-24T01:18:48;92227.81;;;20.37;64.43
61963;BME280;47927;42.646;23.096;2023-06-24T01:21:42;92225.53;;;20.52;63.65
61963;BME280;47927;42.646;23.096;2023-06-24T01:29:58;92234.72;;;20.47;63.46
61963;BME280;47927;42.646;23.096;2023-06-24T01:32:32;92247.19;;;20.05;65.17
61963;BME280;47927;42.646;23.096;2023-06-24T01:35:05;92253.84;;;20.10;65.43
61963;BME280;47927;42.646;23.096;2023-06-24T01:37:39;92251.91;;;20.26;64.63
61963;BME280;47927;42.646;23.096;2023-06-24T01:40:17;92255.94;;;20.31;64.95
61963;BME280;47927;42.646;23.096;2023-06-24T01:42:46;92255.03;;;20.38;64.26
61963;BME280;47927;42.646;23.096;2023-06-24T01:45:14;92275.88;;;20.36;64.79
61963;BME280;47927;42.646;23.096;2023-06-24T01:47:45;92273.69;;;20.47;64.47
61963;BME280;47927;42.646;23.096;2023-06-24T01:50:12;92273.56;;;20.21;65.56
61963;BME280;47927;42.646;23.096;2023-06-24T01:52:41;92276.06;;;20.12;65.80
61963;BME280;47927;42.646;23.096;2023-06-24T01:55:10;92262.50;;;20.26;65.03
61963;BME280;47927;42.646;23.096;2023-06-24T01:57:38;92258.13;;;20.49;63.80
61963;BME280;47927;42.646;23.096;2023-06-24T02:00:07;92271.56;;;20.71;62.78
61963;BME280;47927;42.646;23.096;2023-06-24T02:02:47;92274.63;;;20.69;62.56
61963;BME280;47927;42.646;23.096;2023-06-24T02:05:16;92278.97;;;20.76;62.32
61963;BME280;47927;42.646;23.096;2023-06-24T02:07:42;92257.97;;;20.56;62.83
61963;BME280;47927;42.646;23.096;2023-06-24T02:10:10;92280.94;;;20.59;62.54
61963;BME280;47927;42.646;23.096;2023-06-24T02:12:37;92285.09;;;20.44;62.56
61963;BME280;47927;42.646;23.096;2023-06-24T02:15:05;92288.91;;;20.43;63.05
61963;BME280;47927;42.646;23.096;2023-06-24T02:17:32;92300.75;;;20.38;62.92
61963;BME280;47927;42.646;23.096;2023-06-24T02:19:59;92296.06;;;20.30;63.39
61963;BME280;47927;42.646;23.096;2023-06-24T02:22:25;92312.47;;;20.37;62.56
61963;BME280;47927;42.646;23.096;2023-06-24T02:24:53;92307.94;;;20.38;62.70
61963;BME280;47927;42.646;23.096;2023-06-24T02:27:20;92313.31;;;20.34;62.64
61963;BME280;47927;42.646;23.096;2023-06-24T02:29:46;92310.84;;;20.27;63.17
61963;BME280;47927;42.646;23.096;2023-06-24T02:32:12;92304.69;;;20.17;63.20
61963;BME280;47927;42.646;23.096;2023-06-24T02:34:39;92306.41;;;20.08;63.48
61963;BME280;47927;42.646;23.096;2023-06-24T02:37:05;92307.22;;;20.04;63.91
61963;BME280;47927;42.646;23.096;2023-06-24T02:39:32;92316.34;;;20.03;64.29
61963;BME280;47927;42.646;23.096;2023-06-24T02:41:57;92309.22;;;20.00;64.68
61963;BME280;47927;42.646;23.096;2023-06-24T02:44:23;92315.09;;;20.08;64.26
61963;BME280;47927;42.646;23.096;2023-06-24T02:46:53;92318.31;;;20.16;63.86
61963;BME280;47927;42.646;23.096;2023-06-24T02:49:20;92316.25;;;20.23;63.26
61963;BME280;47927;42.646;23.096;2023-06-24T02:51:47;92314.25;;;20.27;63.23
61963;BME280;47927;42.646;23.096;2023-06-24T02:54:33;92317.31;;;20.26;62.64
61963;BME280;47927;42.646;23.096;2023-06-24T02:57:17;92310.38;;;20.16;62.67
61963;BME280;47927;42.646;23.096;2023-06-24T03:00:15;92318.06;;;20.10;62.21
61963;BME280;47927;42.646;23.096;2023-06-24T03:03:05;92315.84;;;20.09;61.67
61963;BME280;47927;42.646;23.096;2023-06-24T03:05:34;92312.03;;;20.10;62.38
61963;BME280;47927;42.646;23.096;2023-06-24T03:08:00;92307.31;;;20.01;62.83
61963;BME280;47927;42.646;23.096;2023-06-24T03:10:29;92315.13;;;19.75;63.99
61963;BME280;47927;42.646;23.096;2023-06-24T03:12:56;92316.59;;;19.93;63.09
61963;BME280;47927;42.646;23.096;2023-06-24T03:15:29;92315.59;;;20.03;62.70
61963;BME280;47927;42.646;23.096;2023-06-24T03:17:54;92325.69;;;20.08;62.78
61963;BME280;47927;42.646;23.096;2023-06-24T03:20:21;92332.19;;;20.03;62.99
61963;BME280;47927;42.646;23.096;2023-06-24T03:22:46;92329.97;;;20.18;62.93
61963;BME280;47927;42.646;23.096;2023-06-24T03:25:14;92330.84;;;20.28;62.55
61963;BME280;47927;42.646;23.096;2023-06-24T03:27:41;92326.13;;;20.36;62.57
61963;BME280;47927;42.646;23.096;2023-06-24T03:30:07;92320.59;;;20.46;62.50
61963;BME280;47927;42.646;23.096;2023-06-24T03:32:35;92326.69;;;20.60;62.47
61963;BME280;47927;42.646;23.096;2023-06-24T03:35:02;92321.28;;;20.63;63.02
61963;BME280;47927;42.646;23.096;2023-06-24T03:37:28;92317.31;;;20.84;62.84
61963;BME280;47927;42.646;23.096;2023-06-24T03:39:55;92329.97;;;21.06;62.44
61963;BME280;47927;42.646;23.096;2023-06-24T03:55:11;92332.28;;;22.44;59.91
61963;BME280;47927;42.646;23.096;2023-06-24T03:57:37;92337.28;;;22.77;59.92
61963;BME280;47927;42.646;23.096;2023-06-24T04:00:03;92341.91;;;23.08;59.40
61963;BME280;47927;42.646;23.096;2023-06-24T04:02:46;92336.94;;;23.41;58.73
61963;BME280;47927;42.646;23.096;2023-06-24T04:05:12;92338.56;;;23.70;58.24
61963;BME280;47927;42.646;23.096;2023-06-24T04:07:38;92333.03;;;23.86;58.06
61963;BME280;47927;42.646;23.096;2023-06-24T04:10:05;92335.41;;;24.02;57.54
61963;BME280;47927;42.646;23.096;2023-06-24T04:12:35;92347.97;;;24.51;56.94
61963;BME280;47927;42.646;23.096;2023-06-24T04:15:04;92336.69;;;24.93;55.99
61963;BME280;47927;42.646;23.096;2023-06-24T04:17:32;92338.56;;;25.39;55.00
61963;BME280;47927;42.646;23.096;2023-06-24T04:19:58;92336.38;;;25.71;52.47
61963;BME280;47927;42.646;23.096;2023-06-24T04:22:25;92339.59;;;25.84;52.62
61963;BME280;47927;42.646;23.096;2023-06-24T04:24:54;92335.75;;;26.18;51.62
61963;BME280;47927;42.646;23.096;2023-06-24T04:27:20;92348.22;;;25.88;51.46
61963;BME280;47927;42.646;23.096;2023-06-24T04:29:46;92346.13;;;26.16;50.81
61963;BME280;47927;42.646;23.096;2023-06-24T04:32:11;92343.88;;;26.87;48.96
61963;BME280;47927;42.646;23.096;2023-06-24T04:34:37;92340.06;;;27.47;47.39
61963;BME280;47927;42.646;23.096;2023-06-24T04:37:03;92348.28;;;27.88;44.54
61963;BME280;47927;42.646;23.096;2023-06-24T04:39:28;92356.22;;;28.99;43.65
61963;BME280;47927;42.646;23.096;2023-06-24T04:41:54;92345.44;;;30.41;40.20
61963;BME280;47927;42.646;23.096;2023-06-24T04:44:19;92351.13;;;31.87;37.25
61963;BME280;47927;42.646;23.096;2023-06-24T04:46:46;92350.53;;;32.62;34.97
61963;BME280;47927;42.646;23.096;2023-06-24T04:49:11;92360.81;;;33.22;34.33
61963;BME280;47927;42.646;23.096;2023-06-24T04:51:37;92358.72;;;33.03;33.93
61963;BME280;47927;42.646;23.096;2023-06-24T04:54:02;92363.47;;;33.33;34.31
61963;BME280;47927;42.646;23.096;2023-06-24T04:56:29;92357.38;;;33.93;33.96
61963;BME280;47927;42.646;23.096;2023-06-24T04:58:54;92357.09;;;34.76;32.54
61963;BME280;47927;42.646;23.096;2023-06-24T05:01:21;92363.00;;;35.18;31.90
61963;BME280;47927;42.646;23.096;2023-06-24T05:03:47;92357.66;;;34.44;33.08
61963;BME280;47927;42.646;23.096;2023-06-24T05:06:12;92362.00;;;34.03;33.73
61963;BME280;47927;42.646;23.096;2023-06-24T05:08:38;92360.75;;;33.33;34.72
61963;BME280;47927;42.646;23.096;2023-06-24T05:11:03;92358.97;;;33.05;37.37
61963;BME280;47927;42.646;23.096;2023-06-24T05:13:29;92359.63;;;33.17;36.42
61963;BME280;47927;42.646;23.096;2023-06-24T05:15:54;92355.81;;;33.37;35.29
61963;BME280;47927;42.646;23.096;2023-06-24T05:18:20;92360.66;;;33.08;35.79
61963;BME280;47927;42.646;23.096;2023-06-24T05:20:45;92359.44;;;33.04;36.12
61963;BME280;47927;42.646;23.096;2023-06-24T05:23:11;92362.44;;;33.42;35.71
61963;BME280;47927;42.646;23.096;2023-06-24T05:25:36;92354.78;;;33.46;34.67
61963;BME280;47927;42.646;23.096;2023-06-24T05:28:02;92356.88;;;34.49;32.35
61963;BME280;47927;42.646;23.096;2023-06-24T05:30:28;92352.19;;;35.50;30.68
61963;BME280;47927;42.646;23.096;2023-06-24T05:32:53;92349.19;;;37.32;28.70
61963;BME280;47927;42.646;23.096;2023-06-24T05:35:19;92358.91;;;37.96;28.30
61963;BME280;47927;42.646;23.096;2023-06-24T05:37:44;92359.53;;;39.32;26.15
61963;BME280;47927;42.646;23.096;2023-06-24T05:40:10;92356.94;;;40.31;25.52
61963;BME280;47927;42.646;23.096;2023-06-24T05:42:37;92354.59;;;41.47;22.59
61963;BME280;47927;42.646;23.096;2023-06-24T05:45:03;92358.16;;;42.92;20.19
61963;BME280;47927;42.646;23.096;2023-06-24T05:47:29;92362.16;;;43.43;20.77
61963;BME280;47927;42.646;23.096;2023-06-24T05:49:54;92359.97;;;43.69;19.47
61963;BME280;47927;42.646;23.096;2023-06-24T05:52:20;92360.91;;;43.54;19.43
61963;BME280;47927;42.646;23.096;2023-06-24T05:54:45;92349.63;;;44.14;18.20
61963;BME280;47927;42.646;23.096;2023-06-24T05:57:11;92347.00;;;44.63;17.47
61963;BME280;47927;42.646;23.096;2023-06-24T05:59:36;92342.50;;;44.77;17.72
61963;BME280;47927;42.646;23.096;2023-06-24T06:02:03;92350.47;;;45.02;17.92
61963;BME280;47927;42.646;23.096;2023-06-24T06:04:28;92351.78;;;45.01;17.45
61963;BME280;47927;42.646;23.096;2023-06-24T06:06:54;92346.84;;;44.61;18.06
61963;BME280;47927;42.646;23.096;2023-06-24T06:09:20;92345.25;;;45.06;18.18
61963;BME280;47927;42.646;23.096;2023-06-24T06:11:45;92357.72;;;45.07;18.49
61963;BME280;47927;42.646;23.096;2023-06-24T06:14:11;92357.28;;;44.82;18.78
61963;BME280;47927;42.646;23.096;2023-06-24T06:16:36;92352.72;;;45.64;17.48
61963;BME280;47927;42.646;23.096;2023-06-24T06:19:21;92350.09;;;46.07;17.55
61963;BME280;47927;42.646;23.096;2023-06-24T06:21:46;92350.28;;;46.52;17.46
61963;BME280;47927;42.646;23.096;2023-06-24T06:24:12;92349.97;;;46.57;16.95
61963;BME280;47927;42.646;23.096;2023-06-24T06:26:44;92328.84;;;46.72;17.18
61963;BME280;47927;42.646;23.096;2023-06-24T06:29:12;92350.81;;;46.81;17.94
61963;BME280;47927;42.646;23.096;2023-06-24T06:31:38;92346.34;;;46.76;17.15
61963;BME280;47927;42.646;23.096;2023-06-24T06:34:04;92352.41;;;46.85;16.90
61963;BME280;47927;42.646;23.096;2023-06-24T06:36:30;92354.63;;;46.98;17.30
61963;BME280;47927;42.646;23.096;2023-06-24T06:38:55;92354.69;;;46.88;16.96
61963;BME280;47927;42.646;23.096;2023-06-24T06:41:21;92359.00;;;46.91;16.77
61963;BME280;47927;42.646;23.096;2023-06-24T06:43:55;92353.75;;;47.17;16.92
61963;BME280;47927;42.646;23.096;2023-06-24T06:46:21;92353.97;;;47.42;16.47
61963;BME280;47927;42.646;23.096;2023-06-24T06:48:46;92350.28;;;47.73;15.54
61963;BME280;47927;42.646;23.096;2023-06-24T06:51:12;92355.22;;;48.10;16.30
61963;BME280;47927;42.646;23.096;2023-06-24T06:53:38;92354.72;;;48.49;15.48
61963;BME280;47927;42.646;23.096;2023-06-24T06:56:04;92349.59;;;47.84;15.97
61963;BME280;47927;42.646;23.096;2023-06-24T06:58:29;92357.03;;;47.93;16.06
61963;BME280;47927;42.646;23.096;2023-06-24T07:00:55;92358.38;;;47.81;16.04
61963;BME280;47927;42.646;23.096;2023-06-24T07:03:20;92354.75;;;47.33;16.56
61963;BME280;47927;42.646;23.096;2023-06-24T07:05:47;92355.84;;;47.97;16.96
61963;BME280;47927;42.646;23.096;2023-06-24T07:08:12;92369.66;;;47.97;16.05
61963;BME280;47927;42.646;23.096;2023-06-24T07:10:38;92363.41;;;47.84;16.63
61963;BME280;47927;42.646;23.096;2023-06-24T07:13:03;92357.84;;;48.55;16.34
61963;BME280;47927;42.646;23.096;2023-06-24T07:15:29;92350.50;;;49.34;15.31
61963;BME280;47927;42.646;23.096;2023-06-24T07:17:54;92358.75;;;48.83;14.84
61963;BME280;47927;42.646;23.096;2023-06-24T07:20:21;92351.97;;;48.37;16.03
61963;BME280;47927;42.646;23.096;2023-06-24T07:22:47;92354.72;;;48.60;16.00
61963;BME280;47927;42.646;23.096;2023-06-24T07:25:12;92353.75;;;48.68;15.94
61963;BME280;47927;42.646;23.096;2023-06-24T07:27:38;92342.25;;;48.36;15.57
61963;BME280;47927;42.646;23.096;2023-06-24T07:30:05;92346.31;;;48.47;15.65
61963;BME280;47927;42.646;23.096;2023-06-24T07:32:30;92348.41;;;48.34;16.32
61963;BME280;47927;42.646;23.096;2023-06-24T07:34:56;92350.44;;;47.87;15.80
61963;BME280;47927;42.646;23.096;2023-06-24T07:37:22;92350.25;;;47.49;16.59
61963;BME280;47927;42.646;23.096;2023-06-24T07:39:48;92347.28;;;47.24;17.07
61963;BME280;47927;42.646;23.096;2023-06-24T07:42:13;92345.56;;;47.40;18.38
61963;BME280;47927;42.646;23.096;2023-06-24T07:44:47;92355.84;;;47.97;17.60
61963;BME280;47927;42.646;23.096;2023-06-24T07:47:13;92351.16;;;46.76;17.10
61963;BME280;47927;42.646;23.096;2023-06-24T07:49:39;92356.81;;;46.78;18.52
61963;BME280;47927;42.646;23.096;2023-06-24T07:52:05;92353.97;;;47.42;17.72
61963;BME280;47927;42.646;23.096;2023-06-24T07:54:31;92345.88;;;46.68;17.50
61963;BME280;47927;42.646;23.096;2023-06-24T07:56:57;92357.59;;;46.47;18.51
61963;BME280;47927;42.646;23.096;2023-06-24T07:59:22;92352.59;;;46.34;18.95
61963;BME280;47927;42.646;23.096;2023-06-24T08:01:48;92363.88;;;46.59;19.13
61963;BME280;47927;42.646;23.096;2023-06-24T08:04:14;92356.22;;;45.96;20.42
61963;BME280;47927;42.646;23.096;2023-06-24T08:06:40;92348.38;;;46.54;17.99
61963;BME280;47927;42.646;23.096;2023-06-24T08:09:06;92353.78;;;46.95;18.75
61963;BME280;47927;42.646;23.096;2023-06-24T08:11:32;92350.66;;;46.68;18.67
61963;BME280;47927;42.646;23.096;2023-06-24T08:13:58;92349.44;;;46.28;19.17
61963;BME280;47927;42.646;23.096;2023-06-24T08:16:23;92350.19;;;46.50;18.67
61963;BME280;47927;42.646;23.096;2023-06-24T08:18:49;92350.16;;;45.97;20.09
61963;BME280;47927;42.646;23.096;2023-06-24T08:21:15;92346.13;;;44.60;20.23
61963;BME280;47927;42.646;23.096;2023-06-24T08:23:40;92343.50;;;44.33;21.47
61963;BME280;47927;42.646;23.096;2023-06-24T08:26:06;92343.09;;;43.01;22.70
61963;BME280;47927;42.646;23.096;2023-06-24T08:28:33;92336.91;;;42.48;23.98
61963;BME280;47927;42.646;23.096;2023-06-24T08:30:58;92335.78;;;42.26;23.53
61963;BME280;47927;42.646;23.096;2023-06-24T08:33:24;92337.78;;;42.33;24.56
61963;BME280;47927;42.646;23.096;2023-06-24T08:35:49;92337.72;;;42.76;23.62
61963;BME280;47927;42.646;23.096;2023-06-24T08:38:15;92334.16;;;42.31;22.77
61963;BME280;47927;42.646;23.096;2023-06-24T08:40:41;92334.16;;;41.15;23.47
61963;BME280;47927;42.646;23.096;2023-06-24T08:43:08;92332.38;;;41.03;24.72
61963;BME280;47927;42.646;23.096;2023-06-24T08:45:34;92332.78;;;40.84;24.45
61963;BME280;47927;42.646;23.096;2023-06-24T08:48:00;92328.13;;;41.17;25.03
61963;BME280;47927;42.646;23.096;2023-06-24T08:50:33;92328.94;;;41.35;23.56
61963;BME280;47927;42.646;23.096;2023-06-24T08:53:03;92336.03;;;41.38;23.21
61963;BME280;47927;42.646;23.096;2023-06-24T08:55:32;92339.09;;;39.92;25.03
61963;BME280;47927;42.646;23.096;2023-06-24T08:58:00;92330.19;;;39.76;25.63
61963;BME280;47927;42.646;23.096;2023-06-24T09:00:26;92341.59;;;40.59;24.59
61963;BME280;47927;42.646;23.096;2023-06-24T09:02:52;92329.09;;;40.25;24.60
61963;BME280;47927;42.646;23.096;2023-06-24T09:05:17;92328.50;;;41.13;24.10
61963;BME280;47927;42.646;23.096;2023-06-24T09:07:43;92319.94;;;41.50;24.18
61963;BME280;47927;42.646;23.096;2023-06-24T09:10:09;92323.22;;;41.56;23.03
61963;BME280;47927;42.646;23.096;2023-06-24T09:12:35;92328.41;;;40.88;25.00
61963;BME280;47927;42.646;23.096;2023-06-24T09:15:00;92334.19;;;40.21;24.24
61963;BME280;47927;42.646;23.096;2023-06-24T09:17:27;92335.97;;;40.65;23.66
61963;BME280;47927;42.646;23.096;2023-06-24T09:19:54;92346.16;;;39.80;24.87
61963;BME280;47927;42.646;23.096;2023-06-24T09:22:28;92338.56;;;40.01;25.16
61963;BME280;47927;42.646;23.096;2023-06-24T09:24:56;92350.09;;;39.40;25.06
61963;BME280;47927;42.646;23.096;2023-06-24T09:27:21;92347.41;;;39.48;27.48
61963;BME280;47927;42.646;23.096;2023-06-24T09:29:49;92350.50;;;39.01;25.77
61963;BME280;47927;42.646;23.096;2023-06-24T09:32:14;92351.75;;;39.00;27.40
61963;BME280;47927;42.646;23.096;2023-06-24T09:34:40;92345.22;;;39.54;24.34
61963;BME280;47927;42.646;23.096;2023-06-24T09:37:06;92336.72;;;40.27;23.87
61963;BME280;47927;42.646;23.096;2023-06-24T09:39:37;92331.88;;;40.89;23.43
61963;BME280;47927;42.646;23.096;2023-06-24T09:42:04;92346.09;;;40.80;23.04
61963;BME280;47927;42.646;23.096;2023-06-24T09:44:30;92347.72;;;40.90;22.56
61963;BME280;47927;42.646;23.096;2023-06-24T09:46:56;92348.75;;;40.31;22.27
61963;BME280;47927;42.646;23.096;2023-06-24T09:49:22;92336.69;;;39.65;22.99
61963;BME280;47927;42.646;23.096;2023-06-24T09:51:50;92344.03;;;37.76;26.78
61963;BME280;47927;42.646;23.096;2023-06-24T09:54:20;92331.44;;;36.83;26.79
61963;BME280;47927;42.646;23.096;2023-06-24T09:56:49;92327.75;;;37.07;28.83
61963;BME280;47927;42.646;23.096;2023-06-24T09:59:17;92327.13;;;37.70;27.03
61963;BME280;47927;42.646;23.096;2023-06-24T10:02:11;92331.75;;;37.82;26.54
61963;BME280;47927;42.646;23.096;2023-06-24T10:04:39;92328.03;;;36.56;28.71
61963;BME280;47927;42.646;23.096;2023-06-24T10:07:04;92332.06;;;36.49;27.99
61963;BME280;47927;42.646;23.096;2023-06-24T10:09:30;92314.72;;;36.92;27.67
61963;BME280;47927;42.646;23.096;2023-06-24T10:11:55;92316.28;;;36.88;28.30
61963;BME280;47927;42.646;23.096;2023-06-24T10:14:21;92320.66;;;37.38;27.01
61963;BME280;47927;42.646;23.096;2023-06-24T10:16:46;92316.56;;;37.87;28.92
61963;BME280;47927;42.646;23.096;2023-06-24T10:19:19;92305.84;;;38.02;26.11
61963;BME280;47927;42.646;23.096;2023-06-24T10:21:46;92297.94;;;37.91;27.00
61963;BME280;47927;42.646;23.096;2023-06-24T10:24:13;92293.28;;;38.28;27.48
61963;BME280;47927;42.646;23.096;2023-06-24T10:26:39;92296.78;;;38.36;25.75
61963;BME280;47927;42.646;23.096;2023-06-24T10:34:27;92288.25;;;36.59;30.80
61963;BME280;47927;42.646;23.096;2023-06-24T10:39:38;92284.00;;;36.23;28.79
61963;BME280;47927;42.646;23.096;2023-06-24T10:44:48;92276.31;;;35.04;30.20
61963;BME280;47927;42.646;23.096;2023-06-24T10:47:13;92270.53;;;34.08;32.05
61963;BME280;47927;42.646;23.096;2023-06-24T10:49:39;92261.38;;;34.60;31.76
61963;BME280;47927;42.646;23.096;2023-06-24T10:52:08;92264.25;;;35.19;30.13
61963;BME280;47927;42.646;23.096;2023-06-24T10:54:35;92266.53;;;35.79;30.36
61963;BME280;47927;42.646;23.096;2023-06-24T10:57:03;92254.59;;;35.23;30.69
61963;BME280;47927;42.646;23.096;2023-06-24T10:59:42;92260.41;;;35.46;29.59
61963;BME280;47927;42.646;23.096;2023-06-24T11:02:18;92256.00;;;35.43;29.14
61963;BME280;47927;42.646;23.096;2023-06-24T11:04:54;92258.63;;;35.17;30.26
61963;BME280;47927;42.646;23.096;2023-06-24T11:07:22;92257.28;;;34.72;31.20
61963;BME280;47927;42.646;23.096;2023-06-24T11:09:58;92259.47;;;35.25;32.80
61963;BME280;47927;42.646;23.096;2023-06-24T11:12:29;92267.88;;;35.40;28.89
61963;BME280;47927;42.646;23.096;2023-06-24T11:15:00;92239.00;;;35.29;30.25
61963;BME280;47927;42.646;23.096;2023-06-24T11:17:27;92234.28;;;34.41;30.87
61963;BME280;47927;42.646;23.096;2023-06-24T11:19:53;92236.31;;;33.91;31.05
61963;BME280;47927;42.646;23.096;2023-06-24T11:22:19;92248.75;;;34.43;31.79
61963;BME280;47927;42.646;23.096;2023-06-24T11:24:45;92252.16;;;34.25;30.74
61963;BME280;47927;42.646;23.096;2023-06-24T11:27:10;92251.25;;;33.92;31.40
61963;BME280;47927;42.646;23.096;2023-06-24T11:29:36;92254.50;;;33.61;29.97
61963;BME280;47927;42.646;23.096;2023-06-24T11:32:02;92236.16;;;34.02;31.67
61963;BME280;47927;42.646;23.096;2023-06-24T11:34:29;92246.66;;;33.87;31.77
61963;BME280;47927;42.646;23.096;2023-06-24T11:36:54;92234.19;;;34.28;30.15
61963;BME280;47927;42.646;23.096;2023-06-24T11:39:27;92241.00;;;34.91;30.50
61963;BME280;47927;42.646;23.096;2023-06-24T11:41:57;92253.56;;;34.51;30.39
61963;BME280;47927;42.646;23.096;2023-06-24T11:44:26;92259.03;;;33.77;29.95
61963;BME280;47927;42.646;23.096;2023-06-24T11:46:51;92254.03;;;34.36;30.91
61963;BME280;47927;42.646;23.096;2023-06-24T11:49:18;92239.03;;;35.10;29.30
61963;BME280;47927;42.646;23.096;2023-06-24T11:51:50;92227.75;;;35.25;29.99
61963;BME280;47927;42.646;23.096;2023-06-24T11:54:20;92224.19;;;35.63;29.14
61963;BME280;47927;42.646;23.096;2023-06-24T11:56:50;92190.56;;;35.39;28.55
61963;BME280;47927;42.646;23.096;2023-06-24T11:59:22;92194.56;;;35.06;29.55
61963;BME280;47927;42.646;23.096;2023-06-24T12:01:54;92208.38;;;35.02;29.95
61963;BME280;47927;42.646;23.096;2023-06-24T12:04:20;92193.63;;;34.65;30.99
61963;BME280;47927;42.646;23.096;2023-06-24T12:06:46;92189.19;;;35.19;31.85
61963;BME280;47927;42.646;23.096;2023-06-24T12:09:11;92176.13;;;34.85;31.65
61963;BME280;47927;42.646;23.096;2023-06-24T12:11:38;92184.19;;;35.23;30.05
61963;BME280;47927;42.646;23.096;2023-06-24T12:14:05;92194.81;;;35.80;29.28
61963;BME280;47927;42.646;23.096;2023-06-24T12:16:31;92199.22;;;35.51;29.33
61963;BME280;47927;42.646;23.096;2023-06-24T12:18:56;92187.06;;;35.12;31.25
61963;BME280;47927;42.646;23.096;2023-06-24T12:21:22;92184.59;;;35.14;31.26
61963;BME280;47927;42.646;23.096;2023-06-24T12:23:48;92199.28;;;35.19;30.08
61963;BME280;47927;42.646;23.096;2023-06-24T12:26:13;92189.78;;;35.12;30.11
61963;BME280;47927;42.646;23.096;2023-06-24T12:28:39;92197.50;;;34.51;30.45
61963;BME280;47927;42.646;23.096;2023-06-24T12:31:04;92193.28;;;34.37;32.75
61963;BME280;47927;42.646;23.096;2023-06-24T12:33:30;92200.94;;;34.52;31.50
61963;BME280;47927;42.646;23.096;2023-06-24T12:35:56;92200.22;;;34.51;32.76
61963;BME280;47927;42.646;23.096;2023-06-24T12:38:22;92205.41;;;34.49;32.26
61963;BME280;47927;42.646;23.096;2023-06-24T12:40:47;92215.19;;;34.52;31.69
61963;BME280;47927;42.646;23.096;2023-06-24T12:43:14;92228.25;;;34.29;31.81
61963;BME280;47927;42.646;23.096;2023-06-24T12:45:40;92243.81;;;34.04;32.29
61963;BME280;47927;42.646;23.096;2023-06-24T12:48:09;92254.94;;;33.95;32.91
61963;BME280;47927;42.646;23.096;2023-06-24T12:50:35;92254.13;;;34.00;32.45
61963;BME280;47927;42.646;23.096;2023-06-24T12:53:01;92243.31;;;34.00;32.62
61963;BME280;47927;42.646;23.096;2023-06-24T12:55:27;92249.06;;;33.66;34.42
61963;BME280;47927;42.646;23.096;2023-06-24T12:57:52;92252.75;;;33.33;32.18
61963;BME280;47927;42.646;23.096;2023-06-24T13:00:22;92247.31;;;33.08;32.42
61963;BME280;47927;42.646;23.096;2023-06-24T13:02:48;92241.34;;;33.16;33.92
61963;BME280;47927;42.646;23.096;2023-06-24T13:05:14;92234.41;;;32.90;34.69
61963;BME280;47927;42.646;23.096;2023-06-24T13:07:39;92227.00;;;31.91;38.83
61963;BME280;47927;42.646;23.096;2023-06-24T13:10:05;92218.97;;;31.29;41.20
61963;BME280;47927;42.646;23.096;2023-06-24T13:12:32;92219.47;;;30.82;42.92
61963;BME280;47927;42.646;23.096;2023-06-24T13:14:58;92206.38;;;30.41;44.38
61963;BME280;47927;42.646;23.096;2023-06-24T13:17:24;92209.59;;;30.51;44.58
61963;BME280;47927;42.646;23.096;2023-06-24T13:19:50;92200.16;;;30.13;45.38
61963;BME280;47927;42.646;23.096;2023-06-24T13:22:16;92193.09;;;30.15;45.52